Time;durP1;ratioP1;P1;durP2;ratioP2;P2;SDS_P1;SDS_P2;PMS_P1;PMS_P2;Temp;Humidity;BMP_temperature;BMP_pressure;BME280_temperature;BME280_humidity;BME280_pressure;Samples;Min_cycle;Max_cycle;Signal;HPM_P1;HPM_P2
2023/04/09 00:01:13;;;;;;;32.28;22.52;;;;;;;9.53;59.08;100984.94;6132098;22;97403;-92
2023/04/09 00:03:39;;;;;;;30.65;22.88;;;;;;;9.79;58.75;101019.41;6131774;22;96819;-92
2023/04/09 00:06:05;;;;;;;32.50;22.00;;;;;;;9.62;59.11;100988.28;6157392;22;101090;-93
2023/04/09 00:08:31;;;;;;;30.85;23.17;;;;;;;9.75;58.64;101018.63;6157262;22;96777;-92
2023/04/09 00:10:57;;;;;;;32.78;23.48;;;;;;;9.73;59.29;101005.53;6129821;22;96650;-92
2023/04/09 00:13:23;;;;;;;30.98;22.73;;;;;;;9.60;59.23;100984.81;6181520;22;96892;-92
2023/04/09 00:15:49;;;;;;;30.20;22.55;;;;;;;9.69;58.72;101005.63;6156585;22;97693;-92
2023/04/09 00:18:15;;;;;;;30.13;22.55;;;;;;;9.70;59.06;101007.34;6158019;22;98289;-92
2023/04/09 00:20:42;;;;;;;31.85;23.05;;;;;;;9.74;59.07;101011.63;6156780;22;97083;-92
2023/04/09 00:23:08;;;;;;;30.30;23.50;;;;;;;9.80;59.41;101027.25;6183279;22;96804;-93
2023/04/09 00:25:34;;;;;;;34.40;23.38;;;;;;;9.56;59.04;100981.41;6131810;22;99822;-92
2023/04/09 00:27:59;;;;;;;30.25;22.73;;;;;;;9.59;59.01;100991.81;6128973;22;100938;-93
2023/04/09 00:30:27;;;;;;;31.60;22.35;;;;;;;9.52;58.81;100990.22;6156302;22;97157;-91
2023/04/09 00:32:53;;;;;;;31.75;23.35;;;;;;;9.46;58.96;100972.00;6131650;22;96802;-93
2023/04/09 00:35:18;;;;;;;30.10;21.27;;;;;;;9.77;59.04;101032.53;6182720;22;97918;-94
2023/04/09 00:37:44;;;;;;;32.45;23.52;;;;;;;9.76;59.27;101030.81;6156436;22;101351;-92
2023/04/09 00:40:10;;;;;;;31.90;23.70;;;;;;;9.73;59.22;101028.25;6131381;22;96809;-92
2023/04/09 00:42:36;;;;;;;31.83;23.73;;;;;;;9.57;59.12;101006.75;6132812;22;96769;-92
2023/04/09 00:45:04;;;;;;;32.22;24.02;;;;;;;9.68;58.86;101025.72;6129779;22;101325;-92
2023/04/09 00:47:29;;;;;;;31.42;24.17;;;;;;;9.57;59.38;101004.13;6155589;22;101143;-92
2023/04/09 00:49:55;;;;;;;30.20;23.48;;;;;;;9.64;59.55;101015.34;6155077;22;97287;-92
2023/04/09 00:52:22;;;;;;;29.55;23.20;;;;;;;9.79;59.16;101041.25;6131682;22;97889;-92
2023/04/09 00:54:51;;;;;;;29.83;22.90;;;;;;;9.63;59.00;101016.22;6131138;22;101050;-91
2023/04/09 00:57:17;;;;;;;32.55;22.40;;;;;;;9.78;59.22;101043.94;6131920;22;100204;-91
2023/04/09 00:59:43;;;;;;;32.92;23.45;;;;;;;9.46;59.19;100985.97;6131601;22;97081;-92
2023/04/09 01:02:09;;;;;;;31.08;22.92;;;;;;;9.74;59.77;101027.38;6154742;22;96708;-93
2023/04/09 01:04:35;;;;;;;29.60;22.85;;;;;;;9.46;59.40;100992.97;6180483;22;100594;-91
2023/04/09 01:07:10;;;;;;;31.38;22.83;;;;;;;9.43;59.56;100988.66;6156109;22;100927;-93
2023/04/09 01:09:42;;;;;;;30.85;22.55;;;;;;;9.75;59.53;101037.84;6156054;22;97415;-93
2023/04/09 01:12:32;;;;;;;32.55;24.23;;;;;;;9.57;59.86;101006.75;6132329;22;96756;-93
2023/04/09 01:15:05;;;;;;;32.33;23.13;;;;;;;9.77;59.40;101039.56;6155490;22;101194;-93
2023/04/09 01:17:52;;;;;;;34.78;24.38;;;;;;;9.77;59.60;101032.53;6157416;22;101298;-91
2023/04/09 01:20:35;;;;;;;30.90;23.38;;;;;;;9.42;59.65;100994.75;6127068;22;96737;-92
2023/04/09 01:23:27;;;;;;;34.95;24.48;;;;;;;9.72;60.06;101039.66;6155613;22;96807;-92
2023/04/09 01:26:00;;;;;;;31.15;23.55;;;;;;;9.74;59.78;101050.97;6157075;22;98368;-93
2023/04/09 01:28:36;;;;;;;29.90;23.90;;;;;;;9.80;59.64;101063.09;6182800;22;98425;-92
2023/04/09 01:31:16;;;;;;;34.80;26.13;;;;;;;9.74;59.84;101067.59;6157821;22;96795;-91
2023/04/09 01:33:43;;;;;;;33.70;25.67;;;;;;;9.72;59.89;101071.13;6158518;22;96699;-92
2023/04/09 01:36:09;;;;;;;32.80;25.50;;;;;;;9.72;60.16;101065.88;6182537;22;100430;-91
2023/04/09 01:38:36;;;;;;;32.72;24.92;;;;;;;9.67;60.20;101060.69;6131690;22;100305;-92
2023/04/09 01:41:06;;;;;;;34.10;25.02;;;;;;;9.68;60.57;101069.44;6131749;22;97604;-92
2023/04/09 01:43:32;;;;;;;33.83;25.35;;;;;;;9.62;60.51;101065.16;6132468;22;97453;-92
2023/04/09 01:45:59;;;;;;;35.63;24.98;;;;;;;9.52;60.64;101048.75;6132933;22;100164;-94
2023/04/09 01:48:26;;;;;;;35.00;25.38;;;;;;;9.46;60.36;101041.00;6157825;22;100091;-91
2023/04/09 01:50:51;;;;;;;32.90;24.73;;;;;;;9.34;60.63;101014.13;6183960;22;97422;-92
2023/04/09 01:53:17;;;;;;;34.67;25.65;;;;;;;9.63;59.98;101055.53;6186498;22;96762;-92
2023/04/09 01:55:42;;;;;;;34.78;26.75;;;;;;;9.55;60.41;101060.06;6134541;22;100086;-92
2023/04/09 01:58:08;;;;;;;31.08;24.90;;;;;;;9.68;60.66;101082.53;6133054;22;99815;-92
2023/04/09 02:00:46;;;;;;;36.55;27.33;;;;;;;9.64;60.44;101073.88;6158004;22;97177;-93
2023/04/09 02:03:32;;;;;;;38.38;26.73;;;;;;;9.55;60.71;101054.84;6157961;22;96742;-92
2023/04/09 02:06:28;;;;;;;34.35;25.60;;;;;;;9.63;60.58;101074.78;6132435;22;100250;-92
2023/04/09 02:08:56;;;;;;;33.92;24.65;;;;;;;9.67;60.56;101084.31;6152618;22;101444;-93
2023/04/09 02:11:22;;;;;;;36.97;26.77;;;;;;;9.64;60.89;101076.50;6132510;22;96651;-92
2023/04/09 02:13:48;;;;;;;34.65;25.73;;;;;;;9.64;61.02;101083.50;6131844;22;96766;-93
2023/04/09 02:16:14;;;;;;;36.92;27.10;;;;;;;9.64;60.41;101071.25;6157071;22;101533;-94
2023/04/09 02:18:40;;;;;;;35.22;25.30;;;;;;;9.43;60.88;101043.69;6133081;22;101388;-91
2023/04/09 02:21:06;;;;;;;34.75;26.05;;;;;;;9.65;61.07;101075.59;6158439;22;96628;-92
2023/04/09 02:23:32;;;;;;;36.78;27.63;;;;;;;9.64;60.71;101073.88;6158405;22;97662;-92
2023/04/09 02:25:58;;;;;;;32.80;24.80;;;;;;;9.58;61.10;101068.75;6133350;22;101664;-92
2023/04/09 02:28:24;;;;;;;37.15;26.42;;;;;;;9.59;60.61;101067.84;6157651;22;98242;-92
2023/04/09 02:30:50;;;;;;;33.42;25.90;;;;;;;9.22;60.61;101018.72;6181656;22;97713;-92
2023/04/09 02:33:18;;;;;;;37.10;26.73;;;;;;;9.27;60.99;101027.34;6132537;22;96809;-92
2023/04/09 02:35:44;;;;;;;38.90;27.90;;;;;;;9.23;60.68;101015.19;6132673;22;101249;-92
2023/04/09 02:38:14;;;;;;;37.08;27.25;;;;;;;9.30;60.93;101029.91;6158150;22;101093;-93
2023/04/09 02:40:40;;;;;;;36.58;27.27;;;;;;;9.34;60.67;101027.22;6134096;22;97056;-93
2023/04/09 02:43:06;;;;;;;38.45;28.00;;;;;;;9.64;60.57;101079.13;6134163;22;97389;-92
2023/04/09 02:45:31;;;;;;;40.95;28.20;;;;;;;9.52;60.68;101064.47;6180951;22;98200;-92
2023/04/09 02:47:57;;;;;;;36.63;27.25;;;;;;;9.58;60.66;101083.63;6157253;22;97966;-93
2023/04/09 02:50:23;;;;;;;37.92;28.10;;;;;;;9.29;60.77;101040.44;6132511;22;96717;-93
2023/04/09 02:52:51;;;;;;;39.67;28.73;;;;;;;9.28;60.69;101036.09;6159520;22;96755;-92
2023/04/09 02:55:17;;;;;;;36.40;27.40;;;;;;;9.36;60.59;101060.38;6181994;22;101335;-92
2023/04/09 02:57:43;;;;;;;40.05;28.70;;;;;;;9.22;60.65;101021.34;6133186;22;100931;-93
2023/04/09 03:00:10;;;;;;;37.33;28.42;;;;;;;9.25;60.76;101020.41;6157980;22;97687;-93
2023/04/09 03:02:35;;;;;;;39.72;28.95;;;;;;;9.41;60.98;101061.16;6132637;22;96769;-92
2023/04/09 03:05:01;;;;;;;38.80;28.83;;;;;;;9.53;60.81;101074.06;6130283;22;100055;-92
2023/04/09 03:07:27;;;;;;;36.55;28.40;;;;;;;9.28;61.10;101029.09;6134312;22;101414;-92
2023/04/09 03:09:52;;;;;;;40.47;29.73;;;;;;;9.21;60.82;101026.59;6133151;22;96791;-91
2023/04/09 03:12:18;;;;;;;35.65;27.67;;;;;;;9.39;61.40;101059.47;6158501;22;96746;-93
2023/04/09 03:14:43;;;;;;;39.63;28.40;;;;;;;9.50;61.18;101083.75;6157909;22;97033;-91
2023/04/09 03:17:09;;;;;;;40.67;28.40;;;;;;;9.24;61.05;101029.16;6158128;22;98306;-93
2023/04/09 03:19:35;;;;;;;40.75;28.65;;;;;;;9.30;60.93;101029.91;6156387;22;97175;-91
2023/04/09 03:22:01;;;;;;;38.08;28.58;;;;;;;9.20;60.89;101017.88;6131133;22;97243;-92
2023/04/09 03:24:31;;;;;;;39.33;29.02;;;;;;;9.17;61.00;101022.31;6183670;22;101221;-92
2023/04/09 03:27:00;;;;;;;41.22;28.00;;;;;;;9.23;60.90;101028.31;6134753;22;101292;-92
2023/04/09 03:29:26;;;;;;;36.80;29.00;;;;;;;9.23;61.31;101019.59;6158249;22;96742;-92
2023/04/09 03:31:52;;;;;;;36.33;28.08;;;;;;;9.10;60.96;101007.56;6133487;22;96812;-92
2023/04/09 03:34:18;;;;;;;37.38;27.52;;;;;;;9.38;61.36;101063.00;6132869;22;97326;-92
2023/04/09 03:36:47;;;;;;;38.65;27.88;;;;;;;9.10;61.50;101021.53;6132374;22;99780;-93
2023/04/09 03:39:19;;;;;;;37.35;28.63;;;;;;;9.05;61.44;101002.44;6184986;22;96715;-92
2023/04/09 03:41:44;;;;;;;38.58;27.85;;;;;;;9.41;61.68;101063.78;6159148;22;96924;-90
2023/04/09 03:44:13;;;;;;;41.97;28.83;;;;;;;9.37;61.83;101061.28;6177465;22;101245;-92
2023/04/09 03:46:55;;;;;;;39.42;29.33;;;;;;;9.39;62.08;101060.31;6171667;22;100295;-92
2023/04/09 03:49:21;;;;;;;38.30;28.45;;;;;;;9.26;62.15;101051.81;6154011;22;97102;-93
2023/04/09 03:51:47;;;;;;;41.30;30.08;;;;;;;9.28;61.83;101050.06;6153725;22;96769;-92
2023/04/09 03:54:13;;;;;;;38.40;28.65;;;;;;;9.40;61.97;101074.31;6126708;22;100307;-92
2023/04/09 03:56:39;;;;;;;39.47;28.63;;;;;;;9.37;62.40;101075.22;6152625;22;101715;-92
2023/04/09 03:59:08;;;;;;;42.20;29.65;;;;;;;9.39;62.30;101073.44;6128078;22;97235;-92
2023/04/09 04:01:38;;;;;;;37.00;28.85;;;;;;;8.92;62.45;100991.28;6129782;22;96853;-93
2023/04/09 04:04:04;;;;;;;39.70;30.25;;;;;;;9.21;62.37;101034.44;6126925;22;100133;-92
2023/04/09 04:06:49;;;;;;;37.60;27.60;;;;;;;9.26;62.85;101056.22;6177146;22;97445;-93
2023/04/09 04:09:37;;;;;;;35.50;28.58;;;;;;;9.18;63.04;101037.13;6133534;22;97494;-92
2023/04/09 04:12:08;;;;;;;37.05;28.13;;;;;;;9.29;63.16;101058.78;6152364;22;97088;-92
2023/04/09 04:14:54;;;;;;;38.67;28.33;;;;;;;9.17;63.25;101041.50;6160600;22;97368;-92
2023/04/09 04:17:29;;;;;;;40.25;28.45;;;;;;;9.40;63.25;101076.94;6177791;22;100205;-92
2023/04/09 04:19:56;;;;;;;37.75;29.40;;;;;;;9.25;63.00;101065.81;6126909;22;97587;-92
2023/04/09 04:22:22;;;;;;;38.13;28.45;;;;;;;9.33;63.22;101077.91;6150998;22;97088;-94
2023/04/09 04:24:51;;;;;;;38.83;29.45;;;;;;;9.16;63.71;101050.25;6126225;22;101469;-92
2023/04/09 04:27:19;;;;;;;37.03;28.63;;;;;;;9.43;63.42;101090.84;6126602;22;101085;-92
2023/04/09 04:29:45;;;;;;;38.95;29.73;;;;;;;9.28;63.66;101071.00;6127854;22;96947;-93
2023/04/09 04:32:22;;;;;;;43.20;31.63;;;;;;;9.09;63.61;101038.16;6155400;22;96631;-93
2023/04/09 04:34:51;;;;;;;40.15;30.35;;;;;;;9.31;63.47;101077.97;6152070;22;100682;-93
2023/04/09 04:37:24;;;;;;;38.20;29.38;;;;;;;9.33;63.60;101093.63;6152711;22;101251;-93
2023/04/09 04:39:54;;;;;;;39.35;30.27;;;;;;;9.10;64.14;101049.47;6128857;22;96755;-92
2023/04/09 04:42:21;;;;;;;38.83;28.92;;;;;;;9.12;64.01;101060.81;6148913;22;97235;-93
2023/04/09 04:44:47;;;;;;;41.88;29.30;;;;;;;9.16;63.76;101052.88;6126802;22;101343;-92
2023/04/09 04:47:30;;;;;;;42.42;30.33;;;;;;;9.32;63.92;101082.28;6155239;22;100472;-92
2023/04/09 04:49:57;;;;;;;40.53;29.00;;;;;;;9.45;64.29;101112.66;6128496;22;96744;-93
2023/04/09 04:52:23;;;;;;;44.17;29.98;;;;;;;9.46;64.39;101103.03;6127025;22;96661;-93
2023/04/09 04:54:51;;;;;;;43.22;31.92;;;;;;;9.15;64.04;101064.22;6128209;22;100200;-93
2023/04/09 04:57:21;;;;;;;49.85;30.40;;;;;;;9.37;64.38;101106.69;6128008;22;100002;-94
2023/04/09 04:59:47;;;;;;;43.65;29.33;;;;;;;9.40;64.12;101111.88;6148968;22;97032;-93
2023/04/09 05:02:13;;;;;;;38.67;29.48;;;;;;;9.39;64.38;101094.38;6126995;22;97251;-93
2023/04/09 05:04:53;;;;;;;38.08;29.08;;;;;;;9.08;64.39;101036.44;6134103;22;98439;-93
2023/04/09 05:07:26;;;;;;;37.53;28.75;;;;;;;9.07;64.53;101051.28;6130100;22;99443;-92
2023/04/09 05:09:54;;;;;;;40.33;30.08;;;;;;;8.97;64.49;101035.72;6153548;22;96817;-92
2023/04/09 05:12:20;;;;;;;41.45;30.63;;;;;;;9.28;65.02;101091.13;6127658;22;96869;-92
2023/04/09 05:14:49;;;;;;;44.65;32.00;;;;;;;8.99;64.94;101050.53;6154242;22;101144;-93
2023/04/09 05:17:15;;;;;;;49.63;32.60;;;;;;;9.03;65.29;101057.44;6125483;22;101400;-93
2023/04/09 05:19:43;;;;;;;45.15;31.85;;;;;;;9.38;64.97;101124.13;6128702;22;96733;-93
2023/04/09 05:22:11;;;;;;;45.28;31.95;;;;;;;9.14;65.59;101077.38;6152955;22;96930;-93
2023/04/09 05:24:37;;;;;;;42.95;31.67;;;;;;;9.12;65.56;101074.75;6153061;22;101067;-93
2023/04/09 05:27:03;;;;;;;37.70;29.10;;;;;;;9.07;65.50;101060.88;6127918;22;101660;-93
2023/04/09 05:29:29;;;;;;;41.85;30.50;;;;;;;9.03;65.31;101051.34;6128441;22;96939;-92
2023/04/09 05:31:55;;;;;;;41.88;31.08;;;;;;;9.19;65.19;101086.00;6127302;22;96802;-92
2023/04/09 05:34:29;;;;;;;44.50;32.10;;;;;;;9.09;65.37;101045.16;6153945;22;100199;-93
2023/04/09 05:36:55;;;;;;;41.15;30.35;;;;;;;9.26;65.77;101100.75;6127347;22;100950;-93
2023/04/09 05:39:22;;;;;;;45.22;32.65;;;;;;;9.17;65.74;101079.94;6127904;22;96743;-93
2023/04/09 05:41:48;;;;;;;46.83;33.20;;;;;;;9.44;65.91;101126.63;6123561;22;96952;-94
2023/04/09 05:44:25;;;;;;;45.40;32.83;;;;;;;9.46;65.80;101129.25;6125734;22;101437;-93
2023/04/09 05:46:58;;;;;;;58.45;33.53;;;;;;;9.16;66.03;101086.94;6148232;22;101247;-93
2023/04/09 05:49:30;;;;;;;41.83;31.98;;;;;;;9.36;66.52;101135.50;6121075;22;97055;-93
2023/04/09 05:51:57;;;;;;;43.17;31.48;;;;;;;9.23;66.54;101109.50;6097476;22;97016;-93
2023/04/09 05:54:26;;;;;;;41.20;31.40;;;;;;;9.15;66.42;101090.44;6123354;22;101268;-93
2023/04/09 05:56:52;;;;;;;39.63;30.17;;;;;;;9.23;66.44;101098.16;6172896;22;98122;-94
2023/04/09 05:59:17;;;;;;;40.42;30.33;;;;;;;9.35;66.63;101129.41;6122821;22;96624;-94
2023/04/09 06:01:43;;;;;;;41.42;31.83;;;;;;;9.32;66.38;101139.09;6122819;22;97799;-93
2023/04/09 06:04:09;;;;;;;43.70;31.67;;;;;;;9.17;67.32;101125.31;6123355;22;100075;-92
2023/04/09 06:06:38;;;;;;;43.00;31.15;;;;;;;9.08;67.11;101096.66;6121917;22;100016;-94
2023/04/09 06:09:04;;;;;;;41.65;30.08;;;;;;;9.15;67.39;101098.28;6132435;22;97046;-93
2023/04/09 06:11:30;;;;;;;43.05;31.30;;;;;;;9.22;67.10;101123.50;6112374;22;97130;-93
2023/04/09 06:13:55;;;;;;;40.05;29.52;;;;;;;9.35;67.30;101142.50;6155742;22;100158;-94
2023/04/09 06:16:21;;;;;;;40.58;31.80;;;;;;;9.36;67.65;101133.75;6122413;22;100035;-94
2023/04/09 06:18:49;;;;;;;46.88;32.25;;;;;;;9.15;67.42;101090.44;6122751;22;96997;-95
2023/04/09 06:21:15;;;;;;;81.28;40.03;;;;;;;9.02;67.34;101073.19;6122584;22;97082;-92
2023/04/09 06:23:41;;;;;;;43.78;30.95;;;;;;;9.26;67.68;101119.09;6122013;22;100493;-94
2023/04/09 06:26:07;;;;;;;44.90;29.83;;;;;;;9.02;67.84;101078.44;6121178;22;97931;-93
2023/04/09 06:28:32;;;;;;;40.47;30.30;;;;;;;8.99;67.32;101073.25;6146463;22;96989;-93
2023/04/09 06:30:58;;;;;;;42.30;30.30;;;;;;;9.33;67.44;101125.94;6124541;22;96690;-94
2023/04/09 06:33:24;;;;;;;47.50;30.95;;;;;;;9.15;67.53;101086.94;6147471;22;101240;-93
2023/04/09 06:35:50;;;;;;;48.70;31.25;;;;;;;9.26;67.34;101101.59;6122913;22;98138;-93
2023/04/09 06:38:16;;;;;;;40.25;29.30;;;;;;;9.13;66.97;101080.84;6121762;22;96702;-94
2023/04/09 06:40:41;;;;;;;39.65;29.08;;;;;;;9.35;67.51;101121.53;6126885;22;96896;-92
2023/04/09 06:43:08;;;;;;;39.33;30.23;;;;;;;9.33;67.65;101114.59;6151117;22;98430;-93
2023/04/09 06:45:52;;;;;;;40.67;30.42;;;;;;;9.00;67.21;101052.25;6135563;22;101164;-94
2023/04/09 06:48:17;;;;;;;39.97;29.38;;;;;;;9.22;67.22;101094.69;6152570;22;96675;-93
2023/04/09 06:50:43;;;;;;;41.55;30.27;;;;;;;9.05;67.04;101094.97;6128279;22;96797;-94
2023/04/09 06:53:09;;;;;;;40.83;30.85;;;;;;;9.11;67.28;101124.56;6177723;22;97797;-93
2023/04/09 06:55:35;;;;;;;41.97;29.98;;;;;;;9.05;67.48;101130.75;6128404;22;100468;-93
2023/04/09 06:58:01;;;;;;;42.35;30.08;;;;;;;8.85;67.78;101099.63;6176376;22;96544;-93
2023/04/09 07:00:27;;;;;;;41.70;29.55;;;;;;;8.96;67.69;101102.06;6125689;22;96904;-92
2023/04/09 07:02:53;;;;;;;36.97;28.92;;;;;;;9.19;67.45;101149.75;6125825;22;101221;-93
2023/04/09 07:05:18;;;;;;;38.72;28.98;;;;;;;8.91;67.77;101093.44;6127167;22;100388;-92
2023/04/09 07:07:44;;;;;;;37.17;28.70;;;;;;;9.09;67.25;101118.47;6126984;22;97365;-94
2023/04/09 07:10:10;;;;;;;37.72;28.65;;;;;;;8.93;68.07;101099.50;6153156;22;96927;-93
2023/04/09 07:12:35;;;;;;;43.35;29.83;;;;;;;8.99;67.38;101108.16;6126886;22;101022;-92
2023/04/09 07:15:03;;;;;;;41.10;28.77;;;;;;;8.93;67.82;101108.25;6152823;22;101341;-93
2023/04/09 07:17:33;;;;;;;37.95;28.48;;;;;;;8.82;67.54;101090.06;6152434;22;96583;-92
2023/04/09 07:19:58;;;;;;;38.83;29.10;;;;;;;8.89;67.99;101103.06;6127023;22;96778;-92
2023/04/09 07:22:25;;;;;;;39.20;28.52;;;;;;;8.97;67.90;101130.00;6125946;22;100641;-93
2023/04/09 07:24:54;;;;;;;47.08;30.95;;;;;;;8.73;67.83;101086.72;6152873;22;98495;-92
2023/04/09 07:27:24;;;;;;;41.33;29.23;;;;;;;8.90;68.34;101108.28;6151920;22;96765;-92
2023/04/09 07:29:50;;;;;;;38.88;29.92;;;;;;;9.04;68.42;101145.59;6127410;22;97048;-92
2023/04/09 07:32:16;;;;;;;35.60;27.38;;;;;;;8.72;68.37;101114.63;6152249;22;100904;-91
2023/04/09 07:34:43;;;;;;;43.63;29.60;;;;;;;8.89;68.41;101127.47;6178189;22;96851;-92
2023/04/09 07:37:08;;;;;;;39.95;29.38;;;;;;;8.87;68.54;101120.53;6125872;22;97210;-93
2023/04/09 07:39:34;;;;;;;36.80;27.38;;;;;;;9.13;68.33;101154.19;6127342;22;96679;-93
2023/04/09 07:42:03;;;;;;;40.08;28.55;;;;;;;8.90;68.41;101128.34;6156090;22;99618;-91
2023/04/09 07:44:33;;;;;;;38.05;29.25;;;;;;;9.14;68.02;101163.81;6183067;22;98253;-92
2023/04/09 07:47:00;;;;;;;36.85;29.40;;;;;;;9.18;68.21;101165.47;6181276;22;96690;-93
2023/04/09 07:49:25;;;;;;;40.15;28.08;;;;;;;9.05;68.38;101136.84;6181096;22;96633;-94
2023/04/09 07:51:51;;;;;;;37.38;27.02;;;;;;;8.88;68.20;101111.81;6131009;22;100636;-92
2023/04/09 07:54:16;;;;;;;39.20;29.17;;;;;;;9.23;68.43;101167.16;6182053;22;100931;-92
2023/04/09 07:56:42;;;;;;;39.67;27.67;;;;;;;9.10;68.05;101133.28;6131994;22;96655;-93
2023/04/09 07:59:07;;;;;;;39.15;28.95;;;;;;;9.20;68.32;101154.09;6132738;22;97454;-92
2023/04/09 08:01:33;;;;;;;34.67;27.83;;;;;;;8.81;68.67;101093.56;6156311;22;101722;-92
2023/04/09 08:03:59;;;;;;;35.17;28.75;;;;;;;8.99;67.94;101104.66;6156405;22;97738;-91
2023/04/09 08:06:25;;;;;;;39.47;29.83;;;;;;;9.03;68.45;101132.53;6180967;22;96782;-92
2023/04/09 08:08:52;;;;;;;37.78;28.52;;;;;;;8.96;68.29;101116.06;6157655;22;96775;-93
2023/04/09 08:11:23;;;;;;;36.88;28.70;;;;;;;9.06;68.72;101132.47;6133491;22;100044;-93
2023/04/09 08:13:50;;;;;;;40.90;28.83;;;;;;;9.00;68.61;101127.34;6137285;22;100360;-92
2023/04/09 08:16:16;;;;;;;37.15;28.17;;;;;;;8.88;68.63;101111.81;6187819;22;96669;-92
2023/04/09 08:18:42;;;;;;;34.58;27.23;;;;;;;8.88;68.43;101124.91;6158573;22;98067;-92
2023/04/09 08:21:07;;;;;;;35.85;27.90;;;;;;;9.23;68.65;101176.78;6130052;22;101280;-92
2023/04/09 08:23:33;;;;;;;36.08;29.02;;;;;;;9.02;68.52;101133.44;6155882;22;100149;-92
2023/04/09 08:25:58;;;;;;;36.05;27.25;;;;;;;9.09;68.48;101131.56;6183130;22;96670;-92
2023/04/09 08:28:24;;;;;;;37.03;27.65;;;;;;;9.29;68.42;101167.06;6156537;22;96609;-94
2023/04/09 08:30:49;;;;;;;38.17;26.40;;;;;;;8.97;68.54;101107.28;6157647;22;101528;-93
2023/04/09 08:33:15;;;;;;;37.08;28.33;;;;;;;9.15;68.75;101141.97;6132681;22;101150;-92
2023/04/09 08:35:41;;;;;;;38.65;28.42;;;;;;;9.33;68.16;101165.25;6132891;22;96622;-92
2023/04/09 08:38:07;;;;;;;37.75;27.10;;;;;;;9.34;68.10;101163.47;6133261;22;96886;-92
2023/04/09 08:40:36;;;;;;;36.65;27.50;;;;;;;9.20;68.31;101127.91;6154767;22;100265;-91
2023/04/09 08:43:07;;;;;;;39.92;27.45;;;;;;;9.06;68.65;101111.53;6157755;22;101104;-92
2023/04/09 08:45:33;;;;;;;36.45;27.27;;;;;;;9.10;68.19;101117.56;6158985;22;96833;-93
2023/04/09 08:48:02;;;;;;;31.10;25.35;;;;;;;9.36;69.17;101164.34;6133259;22;96793;-92
2023/04/09 08:50:34;;;;;;;36.17;27.08;;;;;;;9.30;68.74;101139.94;6132753;22;100333;-92
2023/04/09 08:53:05;;;;;;;38.55;28.77;;;;;;;9.35;68.37;101142.50;6133602;22;100627;-91
2023/04/09 08:55:33;;;;;;;42.08;29.05;;;;;;;9.48;68.25;101157.16;6133536;22;96751;-93
2023/04/09 08:57:59;;;;;;;50.45;28.52;;;;;;;9.41;68.38;101152.03;6156170;22;96669;-92
2023/04/09 09:00:26;;;;;;;39.08;29.02;;;;;;;9.42;68.73;101156.38;6156925;22;101776;-92
2023/04/09 09:03:05;;;;;;;36.03;28.52;;;;;;;9.56;68.30;101177.13;6132973;22;100831;-91
2023/04/09 09:05:49;;;;;;;44.78;29.98;;;;;;;9.33;68.24;101154.75;6157677;22;96658;-92
2023/04/09 09:08:25;;;;;;;41.80;29.25;;;;;;;9.40;68.65;101151.16;6158822;22;97574;-92
2023/04/09 09:10:51;;;;;;;34.65;27.33;;;;;;;9.51;68.69;101164.97;6133303;22;100416;-92
2023/04/09 09:13:21;;;;;;;41.03;29.80;;;;;;;9.37;68.72;101138.13;6158278;22;100050;-92
2023/04/09 09:15:51;;;;;;;37.88;29.27;;;;;;;9.27;68.42;101113.81;6130182;22;96634;-92
2023/04/09 09:18:18;;;;;;;39.53;29.10;;;;;;;9.49;68.81;101158.03;6132696;22;97203;-93
2023/04/09 09:20:44;;;;;;;38.50;28.00;;;;;;;9.61;68.90;101178.78;6132853;22;102102;-93
2023/04/09 09:23:09;;;;;;;45.58;29.65;;;;;;;9.68;68.52;101171.66;6158415;22;98214;-93
2023/04/09 09:25:40;;;;;;;39.92;29.38;;;;;;;9.66;68.33;101170.84;6132949;22;96657;-92
2023/04/09 09:28:10;;;;;;;39.00;29.35;;;;;;;9.21;68.29;101087.69;6158418;22;97289;-93
2023/04/09 09:30:38;;;;;;;36.10;27.48;;;;;;;9.40;68.55;101130.22;6157551;22;98076;-93
2023/04/09 09:33:08;;;;;;;35.70;28.58;;;;;;;9.46;68.51;101153.69;6129870;22;101263;-93
2023/04/09 09:35:54;;;;;;;37.90;27.90;;;;;;;9.47;68.83;101163.28;6182360;22;96718;-93
2023/04/09 09:38:20;;;;;;;34.03;26.65;;;;;;;9.64;68.33;101175.25;6132213;22;96682;-92
2023/04/09 09:40:46;;;;;;;35.78;27.15;;;;;;;9.56;68.23;101156.16;6181386;22;98316;-93
2023/04/09 09:43:13;;;;;;;39.00;29.23;;;;;;;9.43;68.58;101151.13;6158208;22;98084;-92
2023/04/09 09:45:40;;;;;;;36.65;27.95;;;;;;;9.65;68.68;101182.22;6132104;22;96666;-93
2023/04/09 09:48:06;;;;;;;38.28;27.85;;;;;;;9.46;68.52;101142.34;6157741;22;96745;-91
2023/04/09 09:50:33;;;;;;;36.88;27.73;;;;;;;9.30;68.63;101113.75;6130101;22;101518;-93
2023/04/09 09:53:04;;;;;;;35.28;27.83;;;;;;;9.51;68.23;101156.22;6131827;22;100770;-94
2023/04/09 09:55:32;;;;;;;37.55;28.48;;;;;;;9.59;68.89;101171.84;6157306;22;97524;-93
2023/04/09 09:58:02;;;;;;;51.83;38.30;;;;;;;9.53;68.58;101146.59;6133223;22;96629;-92
2023/04/09 10:00:30;;;;;;;46.83;36.40;;;;;;;9.52;68.83;101139.63;6182648;22;98489;-91
2023/04/09 10:02:58;;;;;;;59.75;41.88;;;;;;;9.56;68.45;101149.16;6132418;22;101343;-93
2023/04/09 10:05:26;;;;;;;48.88;38.65;;;;;;;9.44;68.26;101104.81;6132441;22;96696;-93
2023/04/09 10:07:56;;;;;;;57.30;39.78;;;;;;;9.54;68.85;101140.47;6130179;22;97021;-92
2023/04/09 10:10:23;;;;;;;48.65;35.38;;;;;;;9.47;68.52;101118.72;6156890;22;97324;-93
2023/04/09 10:12:49;;;;;;;48.88;35.72;;;;;;;9.47;68.47;101120.47;6158139;22;101099;-92
2023/04/09 10:15:15;;;;;;;39.40;30.50;;;;;;;9.42;68.70;101114.44;6157504;22;96724;-93
2023/04/09 10:17:40;;;;;;;39.00;30.40;;;;;;;9.63;68.76;101150.78;6158254;22;97471;-92
2023/04/09 10:20:13;;;;;;;38.63;29.58;;;;;;;9.60;68.78;101135.13;6132134;22;100297;-92
2023/04/09 10:22:39;;;;;;;39.20;29.02;;;;;;;9.44;69.43;101108.28;6181781;22;98365;-93
2023/04/09 10:25:05;;;;;;;42.88;32.25;;;;;;;9.57;68.94;101127.31;6155912;22;97123;-92
2023/04/09 10:27:31;;;;;;;42.22;31.92;;;;;;;9.54;69.09;101122.13;6139110;22;97061;-91
2023/04/09 10:29:58;;;;;;;42.50;31.02;;;;;;;9.55;69.06;101121.22;6135835;22;100332;-93
2023/04/09 10:32:26;;;;;;;46.40;32.75;;;;;;;9.64;68.73;101122.81;6142364;22;98761;-93
2023/04/09 10:34:56;;;;;;;46.10;33.53;;;;;;;9.80;68.79;101152.25;6132109;22;96705;-93
2023/04/09 10:37:25;;;;;;;46.25;33.42;;;;;;;9.55;68.80;101123.84;6184103;22;96759;-93
2023/04/09 10:39:51;;;;;;;48.20;33.83;;;;;;;9.49;69.46;101121.34;6129584;22;101568;-93
2023/04/09 10:42:28;;;;;;;46.80;32.45;;;;;;;9.71;69.30;101137.53;6182390;22;98312;-92
2023/04/09 10:45:25;;;;;;;40.38;30.75;;;;;;;9.75;69.84;101134.00;6129251;22;97945;-92
2023/04/09 10:47:50;;;;;;;47.92;32.72;;;;;;;9.72;69.72;101129.66;6139215;22;96700;-94
2023/04/09 10:50:17;;;;;;;42.55;31.65;;;;;;;9.81;70.09;101147.00;6182816;22;98163;-92
2023/04/09 10:52:43;;;;;;;42.13;31.88;;;;;;;9.57;70.25;101113.31;6182795;22;101255;-93
2023/04/09 10:55:10;;;;;;;38.20;29.52;;;;;;;9.52;70.33;101108.16;6157962;22;96801;-94
2023/04/09 10:57:35;;;;;;;39.88;30.60;;;;;;;9.52;70.97;101116.91;6129878;22;97277;-93
2023/04/09 11:00:01;;;;;;;39.05;29.90;;;;;;;9.37;70.99;101105.81;6131533;22;101471;-92
2023/04/09 11:02:26;;;;;;;36.38;29.05;;;;;;;9.56;71.51;101116.84;6158030;22;100791;-92
2023/04/09 11:05:25;;;;;;;34.80;27.13;;;;;;;9.85;70.48;101147.78;6182473;22;96684;-93
2023/04/09 11:08:03;;;;;;;37.15;26.67;;;;;;;9.73;70.78;101143.63;6182982;22;96723;-91
2023/04/09 11:10:29;;;;;;;35.80;26.65;;;;;;;9.67;70.83;101123.63;6182109;22;101522;-93
2023/04/09 11:12:55;;;;;;;40.00;27.35;;;;;;;9.67;70.69;101120.16;6182902;22;101065;-94
2023/04/09 11:15:21;;;;;;;73.45;33.88;;;;;;;9.51;70.62;101094.22;6130381;22;97382;-93
2023/04/09 11:17:47;;;;;;;39.35;26.67;;;;;;;9.61;70.95;101112.38;6156476;22;96927;-93
2023/04/09 11:20:14;;;;;;;36.88;27.95;;;;;;;9.62;70.77;101109.72;6131882;22;101487;-93